Terminal Aerodrome Forecast
Issued by NWS

Home | Current Version | Previous Version | Text Only | Print | Product List | Glossary On
Versions: 1 2 3 4 5 6 7 8 9 10 11 12 13 14 15 16 17 18 19 20 21 22 23 24 25 26 27 28 29 30 31 32 33 34 35 36 37 38 39 40 41 42 43 44 45 46 47 48 49 50
000
FTAK31 PAFA 161302 AAA
TAFAFA
TAF AMD
PAFA 161302Z 1613/1718 22004KT 1SM -SN BR BKN012 OVC025
     FM170000 23005KT 1/2SM SN FG OVC007
     FM171000 VRB04KT P6SM -SHSN SCT015 BKN025=

USA.gov is the U.S. government's official web portal to all federal, state and local government web resources and services.